AirNav   Air Wisconsin pilot careers
 
 443 users online  

9M0 North Country Seaplane Base
Duluth, Minnesota, USA

GOING TO DULUTH?


FAA INFORMATION EFFECTIVE 26 APRIL 2018

Location

FAA Identifier: 9M0
Lat/Long: 47-00-53.7700N / 092-10-05.6700W
47-00.896167N / 092-10.094500W
47.0149361 / -92.1682417
(estimated)
Elevation: 1370 ft. / 418 m (estimated)
Variation: 02E (1985)
From city: 16 miles N of DULUTH, MN
Time zone: UTC -5 (UTC -6 during Standard Time)
Zip code: 55803

Seaplane Base Operations

Seaplane Base use: Open to the public
Activation date: 08/1985
Control tower: no
ARTCC: MINNEAPOLIS CENTER
FSS: PRINCETON FLIGHT SERVICE STATION
NOTAMs facility: PNM (NOTAM-D service available)
Attendance: UNATNDD
Wind indicator: yes
Segmented circle: no

Seaplane Base Communications

CTAF/UNICOM: 122.8
WX ASOS at DLH (10 nm S): PHONE 218-723-8340
WX AWOS-3 at TWM (17 nm E): 119.325 (218-834-6591)
WX AWOS-3 at DYT (18 nm S): 119.275 (218-720-4886)
WX AWOS-3 at SUW (20 nm S): 120.35 (715-394-0283)

Nearby radio navigation aids

VOR radial/distance  VOR name  Freq  Var
DLHr001/12.8DULUTH VORTAC112.6005E
HIBr126/27.8HIBBING VOR/DME110.8002E
EVMr150/27.9EVELETH VOR/DME108.2001E

 
NDB name  Hdg/Dist  Freq  Var  ID
PYKLA037/12.737900EDL -.. .-..
CLOQUET037/23.533501WCOQ -.-. --- --.-
SILVER BAY245/33.935000EBFW -... ..-. .--

Seaplane Base Services

Runway Information

Runway 3/21

Dimensions: 5000 x 300 ft. / 1524 x 91 m
Surface: water
RUNWAY 3  RUNWAY 21
Traffic pattern: leftleft

Runway 9/27

Dimensions: 5000 x 300 ft. / 1524 x 91 m
Surface: water
RUNWAY 9  RUNWAY 27
Traffic pattern: leftleft

Runway 13/31

Dimensions: 5000 x 300 ft. / 1524 x 91 m
Surface: water
RUNWAY 13  RUNWAY 31
Traffic pattern: leftleft

Seaplane Base Ownership and Management from official FAA records

Ownership: Privately-owned
Owner: NEIL MATHISON
4565 ISLAND LAKE DR
DULUTH, MN 55803
Phone 218-721-4448
Manager: NEIL MATHISON
4535 AIRPORT APPROACH RD
DULUTH, MN 55811
Phone 218-727-2911

Seaplane Base Operational Statistics

Aircraft based on the field: 2
Single engine airplanes: 2
    
Aircraft operations: 200/year *
50% transient general aviation
50% local general aviation
* for 12-month period ending 31 August 2003

Additional Remarks

DO NOT CHART PER MINNESOTA DEPARTMENT OF TRANSPORTATION

Instrument Procedures

There are no published instrument procedures at 9M0.

Some nearby airports with instrument procedures:

KDLH - Duluth International Airport (10 nm S)
KTWM - Richard B Helgeson Airport (17 nm E)
KSUW - Richard I Bong Airport (20 nm S)
KCOQ - Cloquet/Carlton County Airport (23 nm SW)
KEVM - Eveleth-Virginia Municipal Airport (28 nm NW)
 
Loc | Ops | Rwys | IFR | FBO | Links
Com | Nav | Svcs | Stats | Notes

AirNav Hotels Sweepstakes
 
Area around 9M0 (North Country Seaplane Base)
 
Road maps at: MapQuest Bing Google
 
Aerial photo
No photo
 
Sectional chart

 
Airport distance calculator
Flying to North Country Seaplane Base? Find the distance to fly.

From to 9M0

Sunrise and sunset
Times for 21-May-2018
 Local
(UTC-5)
 Zulu
(UTC)
Morning civil twilight04:5009:50
Sunrise05:2710:27
Sunset20:4301:43
Evening civil twilight21:2002:20

Current date and time
Zulu (UTC)  21-May-2018 08:20:14
Local (UTC-5)  21-May-2018 03:20:14
 
METAR
KDLH 
10nm S 
210755Z VRB04KT 10SM CLR 04/M01 A3016 RMK AO2 SLP222 T00441006
KTWM 
17nm E 
210755Z AUTO 00000KT 10SM CLR 03/M01 A3015 RMK AO2
KDYT 
19nm S 
210755Z AUTO 00000KT 10SM CLR 08/07 A3018 RMK AO2
TAF
KDLH 
10nm S 
210537Z 2106/2206 00000KT P6SM SKC FM211400 10004KT P6SM FEW250 FM212100 13006KT P6SM BKN100 FM220200 15004KT P6SM BKN060
NOTAMs
Click for the latest NOTAMs
NOTAMs are issued by the DoD/FAA and will open in a separate window not controlled by AirNav.

 

 
 

Would you like to see your business listed on this page?

 If your business provides an interesting product or service to pilots, flight crews, aircraft, or users of the North Country Seaplane Base, you should consider listing it here.  To start the listing process, click on the button below
 
Add a business
 

Other Pages about North Country Seaplane Base

PDF page(s) from the Minnesota Airport Directory
 
Update a link
 
Copyright © AirNav, LLC. All rights reserved. Privacy Policy  Contact